sensor_id;sensor_type;location;lat;lon;timestamp;P1;durP1;ratioP1;P2;durP2;ratioP2
44426;SDS011;30133;47.866;-4.222;2022-11-30T00:00:58;3.70;;;2.03;;
44426;SDS011;30133;47.866;-4.222;2022-11-30T00:03:24;5.32;;;2.50;;
44426;SDS011;30133;47.866;-4.222;2022-11-30T00:05:51;5.35;;;2.42;;
44426;SDS011;30133;47.866;-4.222;2022-11-30T00:08:17;5.40;;;2.85;;
44426;SDS011;30133;47.866;-4.222;2022-11-30T00:10:44;5.75;;;2.47;;
44426;SDS011;30133;47.866;-4.222;2022-11-30T00:13:11;5.57;;;2.85;;
44426;SDS011;30133;47.866;-4.222;2022-11-30T00:15:37;4.72;;;2.42;;
44426;SDS011;30133;47.866;-4.222;2022-11-30T00:18:04;6.32;;;2.35;;
44426;SDS011;30133;47.866;-4.222;2022-11-30T00:20:31;3.50;;;2.28;;
44426;SDS011;30133;47.866;-4.222;2022-11-30T00:22:57;4.80;;;2.08;;
44426;SDS011;30133;47.866;-4.222;2022-11-30T00:25:24;4.80;;;2.50;;
44426;SDS011;30133;47.866;-4.222;2022-11-30T00:27:51;3.80;;;2.58;;
44426;SDS011;30133;47.866;-4.222;2022-11-30T00:30:18;5.18;;;2.35;;
44426;SDS011;30133;47.866;-4.222;2022-11-30T00:32:45;5.80;;;3.05;;
44426;SDS011;30133;47.866;-4.222;2022-11-30T00:35:11;6.75;;;2.38;;
44426;SDS011;30133;47.866;-4.222;2022-11-30T00:37:45;5.10;;;2.47;;
44426;SDS011;30133;47.866;-4.222;2022-11-30T00:40:11;4.60;;;2.20;;
44426;SDS011;30133;47.866;-4.222;2022-11-30T00:42:38;4.15;;;2.20;;
44426;SDS011;30133;47.866;-4.222;2022-11-30T00:45:05;3.13;;;2.10;;
44426;SDS011;30133;47.866;-4.222;2022-11-30T00:47:32;5.10;;;2.00;;
44426;SDS011;30133;47.866;-4.222;2022-11-30T00:50:01;3.30;;;2.05;;
44426;SDS011;30133;47.866;-4.222;2022-11-30T00:52:28;4.10;;;1.90;;
44426;SDS011;30133;47.866;-4.222;2022-11-30T00:54:55;3.47;;;2.33;;
44426;SDS011;30133;47.866;-4.222;2022-11-30T00:57:21;3.05;;;2.15;;
44426;SDS011;30133;47.866;-4.222;2022-11-30T00:59:47;4.47;;;2.60;;
44426;SDS011;30133;47.866;-4.222;2022-11-30T01:02:14;2.70;;;1.80;;
44426;SDS011;30133;47.866;-4.222;2022-11-30T01:04:40;8.73;;;2.08;;
44426;SDS011;30133;47.866;-4.222;2022-11-30T01:07:07;3.88;;;2.03;;
44426;SDS011;30133;47.866;-4.222;2022-11-30T01:09:33;5.80;;;2.40;;
44426;SDS011;30133;47.866;-4.222;2022-11-30T01:12:00;3.22;;;1.73;;
44426;SDS011;30133;47.866;-4.222;2022-11-30T01:14:28;2.88;;;1.60;;
44426;SDS011;30133;47.866;-4.222;2022-11-30T01:16:54;4.60;;;2.45;;
44426;SDS011;30133;47.866;-4.222;2022-11-30T01:19:20;3.58;;;2.42;;
44426;SDS011;30133;47.866;-4.222;2022-11-30T01:21:47;3.10;;;1.95;;
44426;SDS011;30133;47.866;-4.222;2022-11-30T01:24:14;7.15;;;2.30;;
44426;SDS011;30133;47.866;-4.222;2022-11-30T01:26:40;6.22;;;2.38;;
44426;SDS011;30133;47.866;-4.222;2022-11-30T01:29:07;3.95;;;2.10;;
44426;SDS011;30133;47.866;-4.222;2022-11-30T01:31:34;4.38;;;2.25;;
44426;SDS011;30133;47.866;-4.222;2022-11-30T01:34:07;5.07;;;2.13;;
44426;SDS011;30133;47.866;-4.222;2022-11-30T01:36:34;3.45;;;1.70;;
44426;SDS011;30133;47.866;-4.222;2022-11-30T01:39:05;3.55;;;1.80;;
44426;SDS011;30133;47.866;-4.222;2022-11-30T01:41:33;4.03;;;1.73;;
44426;SDS011;30133;47.866;-4.222;2022-11-30T01:46:41;3.30;;;1.73;;
44426;SDS011;30133;47.866;-4.222;2022-11-30T01:49:22;3.03;;;1.73;;
44426;SDS011;30133;47.866;-4.222;2022-11-30T01:51:59;2.45;;;1.67;;
44426;SDS011;30133;47.866;-4.222;2022-11-30T01:54:38;4.40;;;2.00;;
44426;SDS011;30133;47.866;-4.222;2022-11-30T01:59:49;5.80;;;2.30;;
44426;SDS011;30133;47.866;-4.222;2022-11-30T02:02:23;5.60;;;1.80;;
44426;SDS011;30133;47.866;-4.222;2022-11-30T02:04:58;3.47;;;2.08;;
44426;SDS011;30133;47.866;-4.222;2022-11-30T02:07:25;3.35;;;1.90;;
44426;SDS011;30133;47.866;-4.222;2022-11-30T02:09:52;6.03;;;2.28;;
44426;SDS011;30133;47.866;-4.222;2022-11-30T02:12:23;3.42;;;1.98;;
44426;SDS011;30133;47.866;-4.222;2022-11-30T02:14:59;4.18;;;1.90;;
44426;SDS011;30133;47.866;-4.222;2022-11-30T02:23:13;2.78;;;1.88;;
44426;SDS011;30133;47.866;-4.222;2022-11-30T02:26:11;6.72;;;2.03;;
44426;SDS011;30133;47.866;-4.222;2022-11-30T02:31:25;2.50;;;1.60;;
44426;SDS011;30133;47.866;-4.222;2022-11-30T02:34:06;5.80;;;1.60;;
44426;SDS011;30133;47.866;-4.222;2022-11-30T02:36:34;4.43;;;1.67;;
44426;SDS011;30133;47.866;-4.222;2022-11-30T02:39:00;3.08;;;1.85;;
44426;SDS011;30133;47.866;-4.222;2022-11-30T02:41:37;3.53;;;1.80;;
44426;SDS011;30133;47.866;-4.222;2022-11-30T02:44:05;4.60;;;1.70;;
44426;SDS011;30133;47.866;-4.222;2022-11-30T02:49:22;1.20;;;1.05;;
44426;SDS011;30133;47.866;-4.222;2022-11-30T02:52:11;3.30;;;1.48;;
44426;SDS011;30133;47.866;-4.222;2022-11-30T02:54:39;4.28;;;1.55;;
44426;SDS011;30133;47.866;-4.222;2022-11-30T02:57:07;4.63;;;1.63;;
44426;SDS011;30133;47.866;-4.222;2022-11-30T02:59:34;4.70;;;1.67;;
44426;SDS011;30133;47.866;-4.222;2022-11-30T03:02:01;3.08;;;1.60;;
44426;SDS011;30133;47.866;-4.222;2022-11-30T03:04:29;3.58;;;1.55;;
44426;SDS011;30133;47.866;-4.222;2022-11-30T03:06:55;3.95;;;1.67;;
44426;SDS011;30133;47.866;-4.222;2022-11-30T03:09:22;2.58;;;1.63;;
44426;SDS011;30133;47.866;-4.222;2022-11-30T03:11:48;3.97;;;1.60;;
44426;SDS011;30133;47.866;-4.222;2022-11-30T03:14:15;8.13;;;1.95;;
44426;SDS011;30133;47.866;-4.222;2022-11-30T03:16:41;4.10;;;1.70;;
44426;SDS011;30133;47.866;-4.222;2022-11-30T03:19:08;3.40;;;1.45;;
44426;SDS011;30133;47.866;-4.222;2022-11-30T03:21:35;2.53;;;1.40;;
44426;SDS011;30133;47.866;-4.222;2022-11-30T03:24:02;2.67;;;1.45;;
44426;SDS011;30133;47.866;-4.222;2022-11-30T03:26:28;6.20;;;1.30;;
44426;SDS011;30133;47.866;-4.222;2022-11-30T03:28:55;3.83;;;1.55;;
44426;SDS011;30133;47.866;-4.222;2022-11-30T03:31:21;3.60;;;1.40;;
44426;SDS011;30133;47.866;-4.222;2022-11-30T03:33:48;3.10;;;1.33;;
44426;SDS011;30133;47.866;-4.222;2022-11-30T03:36:14;4.07;;;1.55;;
44426;SDS011;30133;47.866;-4.222;2022-11-30T03:38:41;3.13;;;1.40;;
44426;SDS011;30133;47.866;-4.222;2022-11-30T03:41:11;4.35;;;1.30;;
44426;SDS011;30133;47.866;-4.222;2022-11-30T03:43:39;2.08;;;1.35;;
44426;SDS011;30133;47.866;-4.222;2022-11-30T03:46:07;3.25;;;1.65;;
44426;SDS011;30133;47.866;-4.222;2022-11-30T03:48:33;1.90;;;1.40;;
44426;SDS011;30133;47.866;-4.222;2022-11-30T03:51:01;1.98;;;1.38;;
44426;SDS011;30133;47.866;-4.222;2022-11-30T03:53:28;4.65;;;1.40;;
44426;SDS011;30133;47.866;-4.222;2022-11-30T03:55:58;3.28;;;1.42;;
44426;SDS011;30133;47.866;-4.222;2022-11-30T03:58:26;2.20;;;1.52;;
44426;SDS011;30133;47.866;-4.222;2022-11-30T04:01:08;3.05;;;1.48;;
44426;SDS011;30133;47.866;-4.222;2022-11-30T04:03:35;2.35;;;1.63;;
44426;SDS011;30133;47.866;-4.222;2022-11-30T04:06:02;2.22;;;1.45;;
44426;SDS011;30133;47.866;-4.222;2022-11-30T04:08:29;3.85;;;1.25;;
44426;SDS011;30133;47.866;-4.222;2022-11-30T04:10:56;2.03;;;1.23;;
44426;SDS011;30133;47.866;-4.222;2022-11-30T04:13:24;2.20;;;1.42;;
44426;SDS011;30133;47.866;-4.222;2022-11-30T04:15:51;2.13;;;1.58;;
44426;SDS011;30133;47.866;-4.222;2022-11-30T04:18:19;3.65;;;1.65;;
44426;SDS011;30133;47.866;-4.222;2022-11-30T04:20:51;3.47;;;1.30;;
44426;SDS011;30133;47.866;-4.222;2022-11-30T04:23:18;4.60;;;1.30;;
44426;SDS011;30133;47.866;-4.222;2022-11-30T04:25:46;1.85;;;1.45;;
44426;SDS011;30133;47.866;-4.222;2022-11-30T04:28:12;2.95;;;1.50;;
44426;SDS011;30133;47.866;-4.222;2022-11-30T04:30:40;2.33;;;1.27;;
44426;SDS011;30133;47.866;-4.222;2022-11-30T04:33:07;1.45;;;0.95;;
44426;SDS011;30133;47.866;-4.222;2022-11-30T04:35:37;2.00;;;1.13;;
44426;SDS011;30133;47.866;-4.222;2022-11-30T04:38:08;2.70;;;1.30;;
44426;SDS011;30133;47.866;-4.222;2022-11-30T04:40:37;3.63;;;1.45;;
44426;SDS011;30133;47.866;-4.222;2022-11-30T04:43:05;3.13;;;1.58;;
44426;SDS011;30133;47.866;-4.222;2022-11-30T04:45:31;1.35;;;1.00;;
44426;SDS011;30133;47.866;-4.222;2022-11-30T04:47:59;3.17;;;1.40;;
44426;SDS011;30133;47.866;-4.222;2022-11-30T04:50:26;1.88;;;1.27;;
44426;SDS011;30133;47.866;-4.222;2022-11-30T04:52:52;2.50;;;1.15;;
44426;SDS011;30133;47.866;-4.222;2022-11-30T04:55:19;4.05;;;1.55;;
44426;SDS011;30133;47.866;-4.222;2022-11-30T04:57:46;2.58;;;1.35;;
44426;SDS011;30133;47.866;-4.222;2022-11-30T05:00:13;1.58;;;0.95;;
44426;SDS011;30133;47.866;-4.222;2022-11-30T05:02:41;3.33;;;1.27;;
44426;SDS011;30133;47.866;-4.222;2022-11-30T05:05:07;2.08;;;1.20;;
44426;SDS011;30133;47.866;-4.222;2022-11-30T05:07:35;2.53;;;1.52;;
44426;SDS011;30133;47.866;-4.222;2022-11-30T05:10:02;2.90;;;1.35;;
44426;SDS011;30133;47.866;-4.222;2022-11-30T05:12:33;2.70;;;1.35;;
44426;SDS011;30133;47.866;-4.222;2022-11-30T05:14:59;2.13;;;1.30;;
44426;SDS011;30133;47.866;-4.222;2022-11-30T05:17:27;1.80;;;0.98;;
44426;SDS011;30133;47.866;-4.222;2022-11-30T05:19:55;2.17;;;1.17;;
44426;SDS011;30133;47.866;-4.222;2022-11-30T05:22:22;1.90;;;1.40;;
44426;SDS011;30133;47.866;-4.222;2022-11-30T05:24:48;1.63;;;1.17;;
44426;SDS011;30133;47.866;-4.222;2022-11-30T05:27:16;1.88;;;1.33;;
44426;SDS011;30133;47.866;-4.222;2022-11-30T05:29:42;3.03;;;1.02;;
44426;SDS011;30133;47.866;-4.222;2022-11-30T05:32:09;2.47;;;1.33;;
44426;SDS011;30133;47.866;-4.222;2022-11-30T05:34:35;2.47;;;1.25;;
44426;SDS011;30133;47.866;-4.222;2022-11-30T05:37:02;2.63;;;1.25;;
44426;SDS011;30133;47.866;-4.222;2022-11-30T05:39:28;1.88;;;1.27;;
44426;SDS011;30133;47.866;-4.222;2022-11-30T05:41:56;2.58;;;1.30;;
44426;SDS011;30133;47.866;-4.222;2022-11-30T05:44:23;1.08;;;0.80;;
44426;SDS011;30133;47.866;-4.222;2022-11-30T05:46:49;1.60;;;1.05;;
44426;SDS011;30133;47.866;-4.222;2022-11-30T05:49:16;1.88;;;0.93;;
44426;SDS011;30133;47.866;-4.222;2022-11-30T05:51:42;1.83;;;1.20;;
44426;SDS011;30133;47.866;-4.222;2022-11-30T05:54:09;1.95;;;1.02;;
44426;SDS011;30133;47.866;-4.222;2022-11-30T05:56:35;2.15;;;0.95;;
44426;SDS011;30133;47.866;-4.222;2022-11-30T05:59:02;1.77;;;0.93;;
44426;SDS011;30133;47.866;-4.222;2022-11-30T06:01:28;3.22;;;1.17;;
44426;SDS011;30133;47.866;-4.222;2022-11-30T06:03:55;2.92;;;1.75;;
44426;SDS011;30133;47.866;-4.222;2022-11-30T06:06:21;1.98;;;0.73;;
44426;SDS011;30133;47.866;-4.222;2022-11-30T06:08:48;1.60;;;0.98;;
44426;SDS011;30133;47.866;-4.222;2022-11-30T06:11:15;2.45;;;1.17;;
44426;SDS011;30133;47.866;-4.222;2022-11-30T06:13:42;2.10;;;1.17;;
44426;SDS011;30133;47.866;-4.222;2022-11-30T06:16:08;1.10;;;1.00;;
44426;SDS011;30133;47.866;-4.222;2022-11-30T06:18:35;2.47;;;1.10;;
44426;SDS011;30133;47.866;-4.222;2022-11-30T06:21:03;4.05;;;1.80;;
44426;SDS011;30133;47.866;-4.222;2022-11-30T06:23:31;1.92;;;1.27;;
44426;SDS011;30133;47.866;-4.222;2022-11-30T06:25:57;1.80;;;1.02;;
44426;SDS011;30133;47.866;-4.222;2022-11-30T06:28:31;2.20;;;1.13;;
44426;SDS011;30133;47.866;-4.222;2022-11-30T06:31:02;1.20;;;1.10;;
44426;SDS011;30133;47.866;-4.222;2022-11-30T06:33:30;5.30;;;1.00;;
44426;SDS011;30133;47.866;-4.222;2022-11-30T06:35:57;2.45;;;1.30;;
44426;SDS011;30133;47.866;-4.222;2022-11-30T06:38:23;1.88;;;1.00;;
44426;SDS011;30133;47.866;-4.222;2022-11-30T06:40:50;1.52;;;0.98;;
44426;SDS011;30133;47.866;-4.222;2022-11-30T06:43:17;3.60;;;1.45;;
44426;SDS011;30133;47.866;-4.222;2022-11-30T06:45:44;2.30;;;0.88;;
44426;SDS011;30133;47.866;-4.222;2022-11-30T06:48:11;3.28;;;1.00;;
44426;SDS011;30133;47.866;-4.222;2022-11-30T06:50:38;1.58;;;0.90;;
44426;SDS011;30133;47.866;-4.222;2022-11-30T06:53:04;1.23;;;0.98;;
44426;SDS011;30133;47.866;-4.222;2022-11-30T06:55:31;2.65;;;1.00;;
44426;SDS011;30133;47.866;-4.222;2022-11-30T06:58:09;1.63;;;1.17;;
44426;SDS011;30133;47.866;-4.222;2022-11-30T07:00:35;2.92;;;1.15;;
44426;SDS011;30133;47.866;-4.222;2022-11-30T07:03:02;1.73;;;0.95;;
44426;SDS011;30133;47.866;-4.222;2022-11-30T07:05:30;2.10;;;1.10;;
44426;SDS011;30133;47.866;-4.222;2022-11-30T07:08:04;3.00;;;1.35;;
44426;SDS011;30133;47.866;-4.222;2022-11-30T07:10:30;2.45;;;1.15;;
44426;SDS011;30133;47.866;-4.222;2022-11-30T07:12:56;1.50;;;1.05;;
44426;SDS011;30133;47.866;-4.222;2022-11-30T07:15:22;1.15;;;0.80;;
44426;SDS011;30133;47.866;-4.222;2022-11-30T07:17:49;1.83;;;1.10;;
44426;SDS011;30133;47.866;-4.222;2022-11-30T07:20:16;2.13;;;0.80;;
44426;SDS011;30133;47.866;-4.222;2022-11-30T07:22:42;1.50;;;1.23;;
44426;SDS011;30133;47.866;-4.222;2022-11-30T07:25:08;1.88;;;1.10;;
44426;SDS011;30133;47.866;-4.222;2022-11-30T07:27:53;4.32;;;1.33;;
44426;SDS011;30133;47.866;-4.222;2022-11-30T07:30:20;2.63;;;0.95;;
44426;SDS011;30133;47.866;-4.222;2022-11-30T07:32:46;1.73;;;1.02;;
44426;SDS011;30133;47.866;-4.222;2022-11-30T07:35:13;4.07;;;1.25;;
44426;SDS011;30133;47.866;-4.222;2022-11-30T07:37:40;2.03;;;0.90;;
44426;SDS011;30133;47.866;-4.222;2022-11-30T07:40:06;2.75;;;1.17;;
44426;SDS011;30133;47.866;-4.222;2022-11-30T07:42:33;0.90;;;0.70;;
44426;SDS011;30133;47.866;-4.222;2022-11-30T07:44:59;2.97;;;1.42;;
44426;SDS011;30133;47.866;-4.222;2022-11-30T07:47:26;0.93;;;0.85;;
44426;SDS011;30133;47.866;-4.222;2022-11-30T07:49:52;3.42;;;1.20;;
44426;SDS011;30133;47.866;-4.222;2022-11-30T07:52:18;1.60;;;0.90;;
44426;SDS011;30133;47.866;-4.222;2022-11-30T07:54:45;2.03;;;1.10;;
44426;SDS011;30133;47.866;-4.222;2022-11-30T07:57:11;2.35;;;1.30;;
44426;SDS011;30133;47.866;-4.222;2022-11-30T07:59:37;4.97;;;1.55;;
44426;SDS011;30133;47.866;-4.222;2022-11-30T08:02:04;2.70;;;1.10;;
44426;SDS011;30133;47.866;-4.222;2022-11-30T08:04:30;2.22;;;1.10;;
44426;SDS011;30133;47.866;-4.222;2022-11-30T08:06:57;1.20;;;0.75;;
44426;SDS011;30133;47.866;-4.222;2022-11-30T08:09:24;2.05;;;1.05;;
44426;SDS011;30133;47.866;-4.222;2022-11-30T08:11:52;1.98;;;1.25;;
44426;SDS011;30133;47.866;-4.222;2022-11-30T08:14:19;2.28;;;1.42;;
44426;SDS011;30133;47.866;-4.222;2022-11-30T08:16:45;1.17;;;0.80;;
44426;SDS011;30133;47.866;-4.222;2022-11-30T08:19:12;1.95;;;1.15;;
44426;SDS011;30133;47.866;-4.222;2022-11-30T08:21:39;4.47;;;1.42;;
44426;SDS011;30133;47.866;-4.222;2022-11-30T08:24:06;3.00;;;1.30;;
44426;SDS011;30133;47.866;-4.222;2022-11-30T08:26:33;1.30;;;1.00;;
44426;SDS011;30133;47.866;-4.222;2022-11-30T08:29:00;1.90;;;1.27;;
44426;SDS011;30133;47.866;-4.222;2022-11-30T08:31:34;4.68;;;1.25;;
44426;SDS011;30133;47.866;-4.222;2022-11-30T08:34:05;2.05;;;1.20;;
44426;SDS011;30133;47.866;-4.222;2022-11-30T08:36:33;2.38;;;1.25;;
44426;SDS011;30133;47.866;-4.222;2022-11-30T08:39:00;2.75;;;1.50;;
44426;SDS011;30133;47.866;-4.222;2022-11-30T08:41:29;1.20;;;0.88;;
44426;SDS011;30133;47.866;-4.222;2022-11-30T08:43:55;2.28;;;1.60;;
44426;SDS011;30133;47.866;-4.222;2022-11-30T08:46:22;4.18;;;1.67;;
44426;SDS011;30133;47.866;-4.222;2022-11-30T08:48:49;2.78;;;1.27;;
44426;SDS011;30133;47.866;-4.222;2022-11-30T08:51:16;2.63;;;1.50;;
44426;SDS011;30133;47.866;-4.222;2022-11-30T08:53:44;3.03;;;1.20;;
44426;SDS011;30133;47.866;-4.222;2022-11-30T08:56:18;1.27;;;0.77;;
44426;SDS011;30133;47.866;-4.222;2022-11-30T08:58:47;1.85;;;1.00;;
44426;SDS011;30133;47.866;-4.222;2022-11-30T09:01:18;2.20;;;1.30;;
44426;SDS011;30133;47.866;-4.222;2022-11-30T09:03:51;6.55;;;3.20;;
44426;SDS011;30133;47.866;-4.222;2022-11-30T09:06:26;33.50;;;4.18;;
44426;SDS011;30133;47.866;-4.222;2022-11-30T09:08:54;16.33;;;4.72;;
44426;SDS011;30133;47.866;-4.222;2022-11-30T09:13:51;7.65;;;2.97;;
44426;SDS011;30133;47.866;-4.222;2022-11-30T09:16:18;6.68;;;3.28;;
44426;SDS011;30133;47.866;-4.222;2022-11-30T09:18:45;4.43;;;2.72;;
44426;SDS011;30133;47.866;-4.222;2022-11-30T09:21:13;5.03;;;3.15;;
44426;SDS011;30133;47.866;-4.222;2022-11-30T09:23:42;7.20;;;3.03;;
44426;SDS011;30133;47.866;-4.222;2022-11-30T09:26:11;7.93;;;2.75;;
44426;SDS011;30133;47.866;-4.222;2022-11-30T09:28:40;10.55;;;2.75;;
44426;SDS011;30133;47.866;-4.222;2022-11-30T09:31:08;11.05;;;3.40;;
44426;SDS011;30133;47.866;-4.222;2022-11-30T09:33:37;10.52;;;2.55;;
44426;SDS011;30133;47.866;-4.222;2022-11-30T09:36:05;4.05;;;2.22;;
44426;SDS011;30133;47.866;-4.222;2022-11-30T09:38:33;10.40;;;2.25;;
44426;SDS011;30133;47.866;-4.222;2022-11-30T09:41:00;14.20;;;2.55;;
44426;SDS011;30133;47.866;-4.222;2022-11-30T09:46:14;6.80;;;2.10;;
44426;SDS011;30133;47.866;-4.222;2022-11-30T09:54:14;20.20;;;2.75;;
44426;SDS011;30133;47.866;-4.222;2022-11-30T09:59:54;7.53;;;2.45;;
44426;SDS011;30133;47.866;-4.222;2022-11-30T10:02:31;15.15;;;2.30;;
44426;SDS011;30133;47.866;-4.222;2022-11-30T10:05:10;7.82;;;2.50;;
44426;SDS011;30133;47.866;-4.222;2022-11-30T10:10:38;9.77;;;2.28;;
44426;SDS011;30133;47.866;-4.222;2022-11-30T10:13:17;4.75;;;1.88;;
44426;SDS011;30133;47.866;-4.222;2022-11-30T10:16:01;20.65;;;2.42;;
44426;SDS011;30133;47.866;-4.222;2022-11-30T10:18:44;9.90;;;3.65;;
44426;SDS011;30133;47.866;-4.222;2022-11-30T10:24:49;5.63;;;1.73;;
44426;SDS011;30133;47.866;-4.222;2022-11-30T10:30:20;2.38;;;1.77;;
44426;SDS011;30133;47.866;-4.222;2022-11-30T10:32:51;6.03;;;2.33;;
44426;SDS011;30133;47.866;-4.222;2022-11-30T10:35:38;7.75;;;2.63;;
44426;SDS011;30133;47.866;-4.222;2022-11-30T10:38:12;5.40;;;2.22;;
44426;SDS011;30133;47.866;-4.222;2022-11-30T10:41:28;5.18;;;2.42;;
44426;SDS011;30133;47.866;-4.222;2022-11-30T10:46:17;10.10;;;2.58;;
44426;SDS011;30133;47.866;-4.222;2022-11-30T10:49:12;3.28;;;1.73;;
44426;SDS011;30133;47.866;-4.222;2022-11-30T10:51:41;4.43;;;2.22;;
44426;SDS011;30133;47.866;-4.222;2022-11-30T10:54:14;14.23;;;2.25;;
44426;SDS011;30133;47.866;-4.222;2022-11-30T10:56:44;4.30;;;2.22;;
44426;SDS011;30133;47.866;-4.222;2022-11-30T10:59:21;5.50;;;2.30;;
44426;SDS011;30133;47.866;-4.222;2022-11-30T11:01:55;4.90;;;2.30;;
44426;SDS011;30133;47.866;-4.222;2022-11-30T11:04:23;12.32;;;2.30;;
44426;SDS011;30133;47.866;-4.222;2022-11-30T11:06:52;3.47;;;2.05;;
44426;SDS011;30133;47.866;-4.222;2022-11-30T11:09:30;5.55;;;2.03;;
44426;SDS011;30133;47.866;-4.222;2022-11-30T11:12:17;1.88;;;1.65;;
44426;SDS011;30133;47.866;-4.222;2022-11-30T11:15:24;6.32;;;2.10;;
44426;SDS011;30133;47.866;-4.222;2022-11-30T11:17:47;4.43;;;2.17;;
44426;SDS011;30133;47.866;-4.222;2022-11-30T11:20:29;7.10;;;2.83;;
44426;SDS011;30133;47.866;-4.222;2022-11-30T11:23:17;4.38;;;2.15;;
44426;SDS011;30133;47.866;-4.222;2022-11-30T11:25:48;4.18;;;2.33;;
44426;SDS011;30133;47.866;-4.222;2022-11-30T11:28:17;3.55;;;2.10;;
44426;SDS011;30133;47.866;-4.222;2022-11-30T11:30:49;8.15;;;3.85;;
44426;SDS011;30133;47.866;-4.222;2022-11-30T11:33:19;4.78;;;2.03;;
44426;SDS011;30133;47.866;-4.222;2022-11-30T11:38:51;3.95;;;1.98;;
44426;SDS011;30133;47.866;-4.222;2022-11-30T11:41:28;6.00;;;1.70;;
44426;SDS011;30133;47.866;-4.222;2022-11-30T11:44:19;6.35;;;2.83;;
44426;SDS011;30133;47.866;-4.222;2022-11-30T11:47:55;3.42;;;2.45;;
44426;SDS011;30133;47.866;-4.222;2022-11-30T11:49:48;3.17;;;2.05;;
44426;SDS011;30133;47.866;-4.222;2022-11-30T11:52:15;4.57;;;1.85;;
44426;SDS011;30133;47.866;-4.222;2022-11-30T11:57:18;6.60;;;1.73;;
44426;SDS011;30133;47.866;-4.222;2022-11-30T12:02:23;3.90;;;2.08;;
44426;SDS011;30133;47.866;-4.222;2022-11-30T12:13:16;3.30;;;2.17;;
44426;SDS011;30133;47.866;-4.222;2022-11-30T12:15:59;6.90;;;2.20;;
44426;SDS011;30133;47.866;-4.222;2022-11-30T12:18:48;3.92;;;2.20;;
44426;SDS011;30133;47.866;-4.222;2022-11-30T12:24:01;5.38;;;2.22;;
44426;SDS011;30133;47.866;-4.222;2022-11-30T12:29:15;2.25;;;1.65;;
44426;SDS011;30133;47.866;-4.222;2022-11-30T12:40:15;3.42;;;2.00;;
44426;SDS011;30133;47.866;-4.222;2022-11-30T12:59:01;3.70;;;2.38;;
44426;SDS011;30133;47.866;-4.222;2022-11-30T13:07:29;3.53;;;2.03;;
44426;SDS011;30133;47.866;-4.222;2022-11-30T13:12:51;2.75;;;1.85;;
44426;SDS011;30133;47.866;-4.222;2022-11-30T13:15:19;4.63;;;1.95;;
44426;SDS011;30133;47.866;-4.222;2022-11-30T13:17:52;2.40;;;1.88;;
44426;SDS011;30133;47.866;-4.222;2022-11-30T13:26:04;3.13;;;2.30;;
44426;SDS011;30133;47.866;-4.222;2022-11-30T13:31:37;3.70;;;1.98;;
44426;SDS011;30133;47.866;-4.222;2022-11-30T13:34:31;2.45;;;1.50;;
44426;SDS011;30133;47.866;-4.222;2022-11-30T13:37:01;4.28;;;2.28;;
44426;SDS011;30133;47.866;-4.222;2022-11-30T13:42:25;8.02;;;2.30;;
44426;SDS011;30133;47.866;-4.222;2022-11-30T13:44:55;4.05;;;2.30;;
44426;SDS011;30133;47.866;-4.222;2022-11-30T13:47:27;3.65;;;1.83;;
44426;SDS011;30133;47.866;-4.222;2022-11-30T13:50:04;6.03;;;2.03;;
44426;SDS011;30133;47.866;-4.222;2022-11-30T13:58:06;3.50;;;2.10;;
44426;SDS011;30133;47.866;-4.222;2022-11-30T14:05:48;2.45;;;1.50;;
44426;SDS011;30133;47.866;-4.222;2022-11-30T14:10:50;2.80;;;1.77;;
44426;SDS011;30133;47.866;-4.222;2022-11-30T14:26:09;7.45;;;2.28;;
44426;SDS011;30133;47.866;-4.222;2022-11-30T14:31:24;22.40;;;2.67;;
44426;SDS011;30133;47.866;-4.222;2022-11-30T14:33:54;8.82;;;1.77;;
44426;SDS011;30133;47.866;-4.222;2022-11-30T14:36:26;7.28;;;1.70;;
44426;SDS011;30133;47.866;-4.222;2022-11-30T14:39:02;7.90;;;2.50;;
44426;SDS011;30133;47.866;-4.222;2022-11-30T14:44:33;7.70;;;2.22;;
44426;SDS011;30133;47.866;-4.222;2022-11-30T14:49:50;6.40;;;1.75;;
44426;SDS011;30133;47.866;-4.222;2022-11-30T14:55:10;8.35;;;1.98;;
44426;SDS011;30133;47.866;-4.222;2022-11-30T15:00:56;8.30;;;2.10;;
44426;SDS011;30133;47.866;-4.222;2022-11-30T15:03:27;5.40;;;2.13;;
44426;SDS011;30133;47.866;-4.222;2022-11-30T15:05:57;4.05;;;1.58;;
44426;SDS011;30133;47.866;-4.222;2022-11-30T15:08:27;1.80;;;1.63;;
44426;SDS011;30133;47.866;-4.222;2022-11-30T15:11:11;6.60;;;2.92;;
44426;SDS011;30133;47.866;-4.222;2022-11-30T15:13:38;4.60;;;2.20;;
44426;SDS011;30133;47.866;-4.222;2022-11-30T15:18:55;4.07;;;2.13;;
44426;SDS011;30133;47.866;-4.222;2022-11-30T15:21:30;3.22;;;1.80;;
44426;SDS011;30133;47.866;-4.222;2022-11-30T15:23:58;6.75;;;2.42;;
44426;SDS011;30133;47.866;-4.222;2022-11-30T15:26:33;7.68;;;2.55;;
44426;SDS011;30133;47.866;-4.222;2022-11-30T15:29:15;2.35;;;1.67;;
44426;SDS011;30133;47.866;-4.222;2022-11-30T15:31:43;6.80;;;2.53;;
44426;SDS011;30133;47.866;-4.222;2022-11-30T15:34:20;6.20;;;2.08;;
44426;SDS011;30133;47.866;-4.222;2022-11-30T15:36:58;8.38;;;2.15;;
44426;SDS011;30133;47.866;-4.222;2022-11-30T15:39:25;6.75;;;2.88;;
44426;SDS011;30133;47.866;-4.222;2022-11-30T15:42:02;2.97;;;2.15;;
44426;SDS011;30133;47.866;-4.222;2022-11-30T15:44:39;23.45;;;3.63;;
44426;SDS011;30133;47.866;-4.222;2022-11-30T15:49:52;3.28;;;2.25;;
44426;SDS011;30133;47.866;-4.222;2022-11-30T15:52:24;9.43;;;2.22;;
44426;SDS011;30133;47.866;-4.222;2022-11-30T15:54:58;2.40;;;1.85;;
44426;SDS011;30133;47.866;-4.222;2022-11-30T15:57:55;4.57;;;2.42;;
44426;SDS011;30133;47.866;-4.222;2022-11-30T16:00:24;6.95;;;2.17;;
44426;SDS011;30133;47.866;-4.222;2022-11-30T16:03:05;12.75;;;2.40;;
44426;SDS011;30133;47.866;-4.222;2022-11-30T16:05:32;3.28;;;1.98;;
44426;SDS011;30133;47.866;-4.222;2022-11-30T16:07:59;5.15;;;2.22;;
44426;SDS011;30133;47.866;-4.222;2022-11-30T16:10:39;8.93;;;2.35;;
44426;SDS011;30133;47.866;-4.222;2022-11-30T16:13:11;18.13;;;3.22;;
44426;SDS011;30133;47.866;-4.222;2022-11-30T16:15:42;12.65;;;2.35;;
44426;SDS011;30133;47.866;-4.222;2022-11-30T16:20:50;13.75;;;2.80;;
44426;SDS011;30133;47.866;-4.222;2022-11-30T16:25:55;7.88;;;2.05;;
44426;SDS011;30133;47.866;-4.222;2022-11-30T16:28:32;8.13;;;2.55;;
44426;SDS011;30133;47.866;-4.222;2022-11-30T16:31:02;18.42;;;2.15;;
44426;SDS011;30133;47.866;-4.222;2022-11-30T16:33:28;4.57;;;2.47;;
44426;SDS011;30133;47.866;-4.222;2022-11-30T16:35:55;6.32;;;2.13;;
44426;SDS011;30133;47.866;-4.222;2022-11-30T16:38:25;6.47;;;2.70;;
44426;SDS011;30133;47.866;-4.222;2022-11-30T16:40:52;10.68;;;2.28;;
44426;SDS011;30133;47.866;-4.222;2022-11-30T16:43:21;5.28;;;1.95;;
44426;SDS011;30133;47.866;-4.222;2022-11-30T16:45:53;10.17;;;2.30;;
44426;SDS011;30133;47.866;-4.222;2022-11-30T16:48:21;5.43;;;2.42;;
44426;SDS011;30133;47.866;-4.222;2022-11-30T16:50:48;15.73;;;3.13;;
44426;SDS011;30133;47.866;-4.222;2022-11-30T16:53:15;22.25;;;2.85;;
44426;SDS011;30133;47.866;-4.222;2022-11-30T16:55:45;13.68;;;2.90;;
44426;SDS011;30133;47.866;-4.222;2022-11-30T16:58:13;10.02;;;3.70;;
44426;SDS011;30133;47.866;-4.222;2022-11-30T17:00:40;11.70;;;2.90;;
44426;SDS011;30133;47.866;-4.222;2022-11-30T17:05:46;6.38;;;2.22;;
44426;SDS011;30133;47.866;-4.222;2022-11-30T17:08:15;10.90;;;2.67;;
44426;SDS011;30133;47.866;-4.222;2022-11-30T17:10:42;12.25;;;2.80;;
44426;SDS011;30133;47.866;-4.222;2022-11-30T17:13:11;7.88;;;2.63;;
44426;SDS011;30133;47.866;-4.222;2022-11-30T17:15:39;16.42;;;3.03;;
44426;SDS011;30133;47.866;-4.222;2022-11-30T17:18:07;7.60;;;3.03;;
44426;SDS011;30133;47.866;-4.222;2022-11-30T17:20:34;8.73;;;2.53;;
44426;SDS011;30133;47.866;-4.222;2022-11-30T17:23:03;19.17;;;3.83;;
44426;SDS011;30133;47.866;-4.222;2022-11-30T17:25:30;6.70;;;2.33;;
44426;SDS011;30133;47.866;-4.222;2022-11-30T17:27:57;8.48;;;2.25;;
44426;SDS011;30133;47.866;-4.222;2022-11-30T17:30:26;8.40;;;2.75;;
44426;SDS011;30133;47.866;-4.222;2022-11-30T17:32:53;9.70;;;2.83;;